createdAt,value
2018-11-06T00:02:27.715Z,18.03
2018-11-06T00:05:01.529Z,14.37
2018-11-06T00:07:29.885Z,13.80
2018-11-06T00:09:58.214Z,16.60
2018-11-06T00:12:26.602Z,9.47
2018-11-06T00:14:58.036Z,14.87
2018-11-06T00:17:26.382Z,13.10
2018-11-06T00:19:54.901Z,12.87
2018-11-06T00:22:23.270Z,13.03
2018-11-06T00:24:51.644Z,9.57
2018-11-06T00:27:19.958Z,11.93
2018-11-06T00:29:48.320Z,12.40
2018-11-06T00:32:16.746Z,16.03
2018-11-06T00:34:45.094Z,11.70
2018-11-06T00:37:13.457Z,12.30
2018-11-06T00:39:41.828Z,12.73
2018-11-06T00:42:10.261Z,14.33
2018-11-06T00:44:38.632Z,9.17
2018-11-06T00:47:07.064Z,17.97
2018-11-06T00:49:35.415Z,11.87
2018-11-06T00:52:03.778Z,8.27
2018-11-06T00:54:32.188Z,11.47
2018-11-06T00:57:00.581Z,14.03
2018-11-06T00:59:28.953Z,10.83
2018-11-06T01:01:57.585Z,12.63
2018-11-06T01:04:25.933Z,14.30
2018-11-06T01:06:54.268Z,12.57
2018-11-06T01:09:22.652Z,13.13
2018-11-06T01:11:51.005Z,11.60
2018-11-06T01:14:19.349Z,10.60
2018-11-06T01:16:47.709Z,14.27
2018-11-06T01:19:16.073Z,9.60
2018-11-06T01:21:44.438Z,10.57
2018-11-06T01:24:12.793Z,11.53
2018-11-06T01:26:41.124Z,14.90
2018-11-06T01:29:09.869Z,8.10
2018-11-06T01:31:38.223Z,13.30
2018-11-06T01:34:06.581Z,7.83
2018-11-06T01:36:34.938Z,13.10
2018-11-06T01:39:04.171Z,15.60
2018-11-06T01:41:32.519Z,10.80
2018-11-06T01:44:00.859Z,12.77
2018-11-06T01:46:29.212Z,22.23
2018-11-06T01:48:57.563Z,8.63
2018-11-06T01:51:25.885Z,13.50
2018-11-06T01:53:54.237Z,10.07
2018-11-06T01:56:22.590Z,15.33
2018-11-06T01:58:51.087Z,12.70
2018-11-06T02:01:19.460Z,11.33
2018-11-06T02:03:47.767Z,9.27
2018-11-06T02:06:16.107Z,13.27
2018-11-06T02:08:44.467Z,11.40
2018-11-06T02:11:12.799Z,11.13
2018-11-06T02:13:41.134Z,12.67
2018-11-06T02:16:09.561Z,12.73
2018-11-06T02:18:37.883Z,9.20
2018-11-06T02:21:06.384Z,15.27
2018-11-06T02:23:34.681Z,8.60
2018-11-06T02:26:03.026Z,13.93
2018-11-06T02:28:31.346Z,8.23
2018-11-06T02:30:59.677Z,10.80
2018-11-06T02:33:28.003Z,10.47
2018-11-06T02:35:56.326Z,9.63
2018-11-06T02:38:24.790Z,11.70
2018-11-06T02:40:53.143Z,13.53
2018-11-06T02:43:21.449Z,9.90
2018-11-06T02:45:49.821Z,13.27
2018-11-06T02:48:18.171Z,8.07
2018-11-06T02:50:46.535Z,12.77
2018-11-06T02:53:14.885Z,11.17
2018-11-06T02:55:43.253Z,12.37
2018-11-06T02:58:11.552Z,11.13
2018-11-06T03:00:39.911Z,10.47
2018-11-06T03:03:08.264Z,10.10
2018-11-06T03:05:36.594Z,10.33
2018-11-06T03:08:04.953Z,11.77
2018-11-06T03:10:33.299Z,8.77
2018-11-06T03:13:01.627Z,12.80
2018-11-06T03:15:29.972Z,12.53
2018-11-06T03:17:58.297Z,11.53
2018-11-06T03:20:26.610Z,8.40
2018-11-06T03:22:54.955Z,14.27
2018-11-06T03:25:23.272Z,12.87
2018-11-06T03:27:51.626Z,14.70
2018-11-06T03:30:19.965Z,14.37
2018-11-06T03:32:48.322Z,13.03
2018-11-06T03:35:16.684Z,8.77
2018-11-06T03:37:45.040Z,9.70
2018-11-06T03:40:13.697Z,8.57
2018-11-06T03:42:42.793Z,12.40
2018-11-06T03:45:11.882Z,10.00
2018-11-06T03:47:40.254Z,11.23
2018-11-06T03:50:09.867Z,9.10
2018-11-06T03:52:38.240Z,10.00
2018-11-06T03:55:06.830Z,11.17
2018-11-06T03:57:35.247Z,11.87
2018-11-06T04:00:03.660Z,11.77
2018-11-06T04:02:31.988Z,13.00
2018-11-06T04:05:00.359Z,11.17
2018-11-06T04:07:28.818Z,8.73
2018-11-06T04:09:57.150Z,10.87
2018-11-06T04:12:25.494Z,8.73
2018-11-06T04:14:53.854Z,10.47
2018-11-06T04:17:22.229Z,11.93
2018-11-06T04:19:50.708Z,8.10
2018-11-06T04:22:19.040Z,10.07
2018-11-06T04:24:47.381Z,10.73
2018-11-06T04:27:15.728Z,11.43
2018-11-06T04:29:44.054Z,12.60
2018-11-06T04:32:12.399Z,9.47
2018-11-06T04:34:40.729Z,10.00
2018-11-06T04:37:09.120Z,10.93
2018-11-06T04:39:37.442Z,11.10
2018-11-06T04:42:06.062Z,10.63
2018-11-06T04:44:34.425Z,12.13
2018-11-06T04:47:02.797Z,11.63
2018-11-06T04:49:31.183Z,10.33
2018-11-06T04:51:59.518Z,9.77
2018-11-06T04:54:27.854Z,11.87
2018-11-06T04:56:56.210Z,12.03
2018-11-06T04:59:24.517Z,13.30
2018-11-06T05:01:52.907Z,12.07
2018-11-06T05:04:21.258Z,13.80
2018-11-06T05:06:49.658Z,9.47
2018-11-06T05:09:17.992Z,11.27
2018-11-06T05:11:46.318Z,9.60
2018-11-06T05:14:14.745Z,10.33
2018-11-06T05:16:43.006Z,13.43
2018-11-06T05:19:11.341Z,9.70
2018-11-06T05:21:39.706Z,10.93
2018-11-06T05:24:08.030Z,9.90
2018-11-06T05:26:36.384Z,9.17
2018-11-06T05:29:04.727Z,10.23
2018-11-06T05:31:33.092Z,10.70
2018-11-06T05:34:01.441Z,9.70
2018-11-06T05:36:29.788Z,11.17
2018-11-06T05:38:58.184Z,12.13
2018-11-06T05:41:26.465Z,10.53
2018-11-06T05:43:54.815Z,9.90
2018-11-06T05:46:23.156Z,8.97
2018-11-06T05:48:51.510Z,12.37
2018-11-06T05:51:19.868Z,11.07
2018-11-06T05:53:48.228Z,12.07
2018-11-06T05:56:16.566Z,13.23
2018-11-06T05:58:44.940Z,10.37
2018-11-06T06:01:13.293Z,12.17
2018-11-06T06:03:41.628Z,13.83
2018-11-06T06:06:10.047Z,13.77
2018-11-06T06:08:38.383Z,8.73
2018-11-06T06:11:06.895Z,13.63
2018-11-06T06:13:35.162Z,14.40
2018-11-06T06:16:03.598Z,14.57
2018-11-06T06:18:31.937Z,13.37
2018-11-06T06:21:00.327Z,14.07
2018-11-06T06:23:28.721Z,14.33
2018-11-06T06:25:57.060Z,11.00
2018-11-06T06:28:25.521Z,12.47
2018-11-06T06:30:53.794Z,15.63
2018-11-06T06:33:22.150Z,14.80
2018-11-06T06:35:50.556Z,13.37
2018-11-06T06:38:18.904Z,12.10
2018-11-06T06:40:47.252Z,11.77
2018-11-06T06:43:15.610Z,12.10
2018-11-06T06:45:43.975Z,12.80
2018-11-06T06:48:12.354Z,14.77
2018-11-06T06:50:40.697Z,11.90
2018-11-06T06:53:09.023Z,9.03
2018-11-06T06:55:37.399Z,11.97
2018-11-06T06:58:05.723Z,16.13
2018-11-06T07:00:34.099Z,13.07
2018-11-06T07:03:02.424Z,12.33
2018-11-06T07:05:30.767Z,13.57
2018-11-06T07:07:59.156Z,11.97
2018-11-06T07:10:27.491Z,10.60
2018-11-06T07:12:55.892Z,10.83
2018-11-06T07:15:24.233Z,13.60
2018-11-06T07:17:52.873Z,14.27
2018-11-06T07:20:22.635Z,14.07
2018-11-06T07:22:50.974Z,16.00
2018-11-06T07:25:19.345Z,14.93
2018-11-06T07:27:48.331Z,11.97
2018-11-06T07:30:19.848Z,18.43
2018-11-06T07:32:48.252Z,14.63
2018-11-06T07:35:17.347Z,16.33
2018-11-06T07:37:45.845Z,19.77
2018-11-06T07:40:15.441Z,21.57
2018-11-06T07:42:43.853Z,17.50
2018-11-06T07:45:13.665Z,19.47
2018-11-06T07:47:42.063Z,16.40
2018-11-06T07:50:11.085Z,17.23
2018-11-06T07:52:39.689Z,13.80
2018-11-06T07:55:10.055Z,17.23
2018-11-06T07:57:38.372Z,14.70
2018-11-06T08:00:17.651Z,12.03
2018-11-06T08:02:46.828Z,20.57
2018-11-06T08:05:15.712Z,21.57
2018-11-06T08:07:44.836Z,37.03
2018-11-06T08:10:13.198Z,25.80
2018-11-06T08:12:43.121Z,17.93
2018-11-06T08:15:12.144Z,20.97
2018-11-06T08:17:40.993Z,20.23
2018-11-06T08:20:09.359Z,19.00
2018-11-06T08:22:38.166Z,18.80
2018-11-06T08:25:07.539Z,15.90
2018-11-06T08:27:35.959Z,16.60
2018-11-06T08:30:05.041Z,20.93
2018-11-06T08:32:33.822Z,20.87
2018-11-06T08:35:01.692Z,23.67
2018-11-06T08:37:30.042Z,18.67
2018-11-06T08:39:58.409Z,20.60
2018-11-06T08:42:26.755Z,18.87
2018-11-06T08:44:55.101Z,18.33
2018-11-06T08:47:23.476Z,18.63
2018-11-06T08:49:51.823Z,18.33
2018-11-06T08:52:20.184Z,19.97
2018-11-06T08:54:48.539Z,18.93
2018-11-06T08:57:16.894Z,18.03
2018-11-06T08:59:45.226Z,16.70
2018-11-06T09:02:13.585Z,18.50
2018-11-06T09:04:41.948Z,20.50
2018-11-06T09:07:10.336Z,18.13
2018-11-06T09:09:38.664Z,24.17
2018-11-06T09:12:07.011Z,15.03
2018-11-06T09:14:35.396Z,18.90
2018-11-06T09:17:03.806Z,15.83
2018-11-06T09:19:32.110Z,16.83
2018-11-06T09:22:00.450Z,19.27
2018-11-06T09:24:28.779Z,18.23
2018-11-06T09:26:57.136Z,19.07
2018-11-06T09:29:25.477Z,18.37
2018-11-06T09:31:53.865Z,18.40
2018-11-06T09:34:22.188Z,16.87
2018-11-06T09:36:50.513Z,18.07
2018-11-06T09:39:18.879Z,16.50
2018-11-06T09:41:47.215Z,15.43
2018-11-06T09:44:15.578Z,17.70
2018-11-06T09:46:44.018Z,15.00
2018-11-06T09:49:12.371Z,15.73
2018-11-06T09:51:40.772Z,15.67
2018-11-06T09:54:09.098Z,17.80
2018-11-06T09:56:37.477Z,15.57
2018-11-06T09:59:05.834Z,14.30
2018-11-06T10:01:34.190Z,14.33
2018-11-06T10:04:02.538Z,12.23
2018-11-06T10:06:30.965Z,17.77
2018-11-06T10:08:59.256Z,16.27
2018-11-06T10:11:27.657Z,15.43
2018-11-06T10:13:55.942Z,15.40
2018-11-06T10:16:24.275Z,13.83
2018-11-06T10:18:52.608Z,13.87
2018-11-06T10:21:21.069Z,14.23
2018-11-06T10:23:49.341Z,12.97
2018-11-06T10:26:17.670Z,14.37
2018-11-06T10:28:46.053Z,12.73
2018-11-06T10:31:14.382Z,15.50
2018-11-06T10:33:42.797Z,14.43
2018-11-06T10:36:11.193Z,15.00
2018-11-06T10:38:39.571Z,14.63
2018-11-06T10:41:07.958Z,13.97
2018-11-06T10:43:36.316Z,14.70
2018-11-06T10:46:04.944Z,14.37
2018-11-06T10:48:33.320Z,15.37
2018-11-06T10:51:01.628Z,16.37
2018-11-06T10:53:30.012Z,14.03
2018-11-06T10:55:58.469Z,13.37
2018-11-06T10:58:26.849Z,12.07
2018-11-06T11:01:00.624Z,14.37
2018-11-06T11:03:34.254Z,11.40
2018-11-06T11:06:02.574Z,15.33
2018-11-06T11:08:30.913Z,15.47
2018-11-06T11:10:59.329Z,12.13
2018-11-06T11:13:27.743Z,13.13
2018-11-06T11:15:56.056Z,13.57
2018-11-06T11:18:24.407Z,13.40
2018-11-06T11:20:52.766Z,14.53
2018-11-06T11:23:21.160Z,13.40
2018-11-06T11:25:49.661Z,12.97
2018-11-06T11:28:17.972Z,15.03
2018-11-06T11:30:46.331Z,14.70
2018-11-06T11:33:14.731Z,15.67
2018-11-06T11:35:43.206Z,13.50
2018-11-06T11:38:11.568Z,14.87
2018-11-06T11:40:40.059Z,13.80
2018-11-06T11:43:08.449Z,15.33
2018-11-06T11:45:36.817Z,13.23
2018-11-06T11:48:05.561Z,13.03
2018-11-06T11:50:33.940Z,11.37
2018-11-06T11:53:02.502Z,12.47
2018-11-06T11:55:30.909Z,13.37
2018-11-06T11:57:59.346Z,10.13
2018-11-06T12:00:28.637Z,10.77
2018-11-06T12:02:57.641Z,12.07
2018-11-06T12:05:25.987Z,11.97
2018-11-06T12:07:54.357Z,11.93
2018-11-06T12:10:22.929Z,12.57
2018-11-06T12:12:51.289Z,11.83
2018-11-06T12:15:19.959Z,12.03
2018-11-06T12:17:48.356Z,11.97
2018-11-06T12:20:17.073Z,12.60
2018-11-06T12:22:45.543Z,11.73
2018-11-06T12:25:14.358Z,12.33
2018-11-06T12:27:42.827Z,13.03
2018-11-06T12:30:14.256Z,13.83
2018-11-06T12:32:42.768Z,12.13
2018-11-06T12:35:12.087Z,12.87
2018-11-06T12:37:40.741Z,11.67
2018-11-06T12:40:10.462Z,10.00
2018-11-06T12:42:39.439Z,10.13
2018-11-06T12:45:09.469Z,10.27
2018-11-06T12:47:37.999Z,10.27
2018-11-06T12:50:07.187Z,10.13
2018-11-06T12:52:35.571Z,10.47
2018-11-06T12:55:04.265Z,12.10
2018-11-06T12:57:32.633Z,10.63
2018-11-06T13:00:01.004Z,12.07
2018-11-06T13:02:29.340Z,11.47
2018-11-06T13:04:57.671Z,8.90
2018-11-06T13:07:25.993Z,9.13
2018-11-06T13:09:54.464Z,11.20
2018-11-06T13:12:22.786Z,10.57
2018-11-06T13:14:51.144Z,15.50
2018-11-06T13:17:19.473Z,11.60
2018-11-06T13:19:47.824Z,11.57
2018-11-06T13:22:16.197Z,10.80
2018-11-06T13:24:44.531Z,11.27
2018-11-06T13:27:12.887Z,12.57
2018-11-06T13:29:41.314Z,10.10
2018-11-06T13:32:09.738Z,10.30
2018-11-06T13:34:38.069Z,11.80
2018-11-06T13:37:06.475Z,14.73
2018-11-06T13:39:34.812Z,12.30
2018-11-06T13:42:03.226Z,10.97
2018-11-06T13:44:31.839Z,9.83
2018-11-06T13:46:59.862Z,12.53
2018-11-06T13:49:28.223Z,11.50
2018-11-06T13:51:56.649Z,11.63
2018-11-06T13:54:24.962Z,10.97
2018-11-06T13:56:53.299Z,12.07
2018-11-06T13:59:21.683Z,11.03
2018-11-06T14:01:50.042Z,10.10
2018-11-06T14:04:18.460Z,11.07
2018-11-06T14:06:46.840Z,11.20
2018-11-06T14:09:15.199Z,10.37
2018-11-06T14:11:43.545Z,9.00
2018-11-06T14:14:11.901Z,11.60
2018-11-06T14:16:40.256Z,11.77
2018-11-06T14:19:08.618Z,10.90
2018-11-06T14:21:36.951Z,11.30
2018-11-06T14:24:05.423Z,11.10
2018-11-06T14:26:33.804Z,10.60
2018-11-06T14:29:02.313Z,11.33
2018-11-06T14:31:30.724Z,12.50
2018-11-06T14:33:59.339Z,14.00
2018-11-06T14:36:27.783Z,14.47
2018-11-06T14:38:56.133Z,14.03
2018-11-06T14:41:24.507Z,14.27
2018-11-06T14:43:52.884Z,13.90
2018-11-06T14:46:21.249Z,14.77
2018-11-06T14:48:49.714Z,13.80
2018-11-06T14:51:18.098Z,13.77
2018-11-06T14:53:46.480Z,14.77
2018-11-06T14:56:15.068Z,13.87
2018-11-06T14:58:43.660Z,12.80
2018-11-06T15:01:12.047Z,12.23
2018-11-06T15:03:40.398Z,13.50
2018-11-06T15:06:08.869Z,13.03
2018-11-06T15:08:37.269Z,12.60
2018-11-06T15:11:05.661Z,13.87
2018-11-06T15:13:33.992Z,14.90
2018-11-06T15:16:02.344Z,14.10
2018-11-06T15:18:30.717Z,20.57
2018-11-06T15:20:59.189Z,15.97
2018-11-06T15:23:27.506Z,13.40
2018-11-06T15:25:55.890Z,12.57
2018-11-06T15:28:24.268Z,12.97
2018-11-06T15:30:52.674Z,13.03
2018-11-06T15:33:21.027Z,13.17
2018-11-06T15:35:49.400Z,13.03
2018-11-06T15:38:17.769Z,12.93
2018-11-06T15:40:46.166Z,14.60
2018-11-06T15:43:14.552Z,12.97
2018-11-06T15:45:42.878Z,13.67
2018-11-06T15:48:11.242Z,14.17
2018-11-06T15:50:39.649Z,13.57
2018-11-06T15:53:08.052Z,15.70
2018-11-06T15:55:36.462Z,16.37
2018-11-06T15:58:04.870Z,19.00
2018-11-06T16:00:33.315Z,15.27
2018-11-06T16:03:01.630Z,14.50
2018-11-06T16:05:30.005Z,12.90
2018-11-06T16:07:58.413Z,13.63
2018-11-06T16:10:26.754Z,14.60
2018-11-06T16:12:55.160Z,14.07
2018-11-06T16:15:23.589Z,13.03
2018-11-06T16:17:51.942Z,14.30
2018-11-06T16:20:21.116Z,12.27
2018-11-06T16:22:49.549Z,13.37
2018-11-06T16:25:18.785Z,13.57
2018-11-06T16:27:47.372Z,14.90
2018-11-06T16:30:17.271Z,13.50
2018-11-06T16:32:45.732Z,14.63
2018-11-06T16:35:15.549Z,15.37
2018-11-06T16:37:44.369Z,13.83
2018-11-06T16:40:13.336Z,15.10
2018-11-06T16:42:42.750Z,14.63
2018-11-06T16:45:13.697Z,13.90
2018-11-06T16:47:42.760Z,15.90
2018-11-06T16:50:12.518Z,16.77
2018-11-06T16:52:41.074Z,18.77
2018-11-06T16:55:09.965Z,16.13
2018-11-06T16:57:39.595Z,16.00
2018-11-06T17:00:09.893Z,19.70
2018-11-06T17:02:38.254Z,20.80
2018-11-06T17:05:07.350Z,23.43
2018-11-06T17:07:35.737Z,25.27
2018-11-06T17:10:05.235Z,25.03
2018-11-06T17:12:33.659Z,20.20
2018-11-06T17:15:02.095Z,18.73
2018-11-06T17:17:30.450Z,17.87
2018-11-06T17:19:58.816Z,16.83
2018-11-06T17:22:27.205Z,16.17
2018-11-06T17:24:55.556Z,16.67
2018-11-06T17:27:23.943Z,17.33
2018-11-06T17:29:52.287Z,18.67
2018-11-06T17:32:20.702Z,17.73
2018-11-06T17:34:49.068Z,17.53
2018-11-06T17:37:17.475Z,18.43
2018-11-06T17:39:45.817Z,16.73
2018-11-06T17:42:14.199Z,18.43
2018-11-06T17:44:42.567Z,18.33
2018-11-06T17:47:10.996Z,20.03
2018-11-06T17:49:39.336Z,31.90
2018-11-06T17:52:07.726Z,23.40
2018-11-06T17:54:36.094Z,22.83
2018-11-06T17:57:04.558Z,18.53
2018-11-06T17:59:32.993Z,17.97
2018-11-06T18:02:01.427Z,16.93
2018-11-06T18:04:30.051Z,19.73
2018-11-06T18:06:59.582Z,18.83
2018-11-06T18:09:28.490Z,15.70
2018-11-06T18:11:56.952Z,18.37
2018-11-06T18:14:26.098Z,16.07
2018-11-06T18:16:55.902Z,14.60
2018-11-06T18:19:24.285Z,17.03
2018-11-06T18:21:52.671Z,18.10
2018-11-06T18:24:21.105Z,18.40
2018-11-06T18:26:49.469Z,18.33
2018-11-06T18:29:18.921Z,18.33
2018-11-06T18:31:47.658Z,22.40
2018-11-06T18:34:15.998Z,18.17
2018-11-06T18:36:44.418Z,16.13
2018-11-06T18:39:14.206Z,19.27
2018-11-06T18:41:43.043Z,20.93
2018-11-06T18:44:11.468Z,18.47
2018-11-06T18:46:39.833Z,16.77
2018-11-06T18:49:08.696Z,18.37
2018-11-06T18:51:37.090Z,20.37
2018-11-06T18:54:05.773Z,18.73
2018-11-06T18:56:34.181Z,17.63
2018-11-06T18:59:02.619Z,19.03
2018-11-06T19:01:30.987Z,24.50
2018-11-06T19:03:59.373Z,18.00
2018-11-06T19:06:27.753Z,17.43
2018-11-06T19:08:56.148Z,11.90
2018-11-06T19:11:24.488Z,12.07
2018-11-06T19:13:52.870Z,14.27
2018-11-06T19:16:27.848Z,13.17
2018-11-06T19:18:56.224Z,14.17
2018-11-06T19:21:24.581Z,14.40
2018-11-06T19:23:52.997Z,14.73
2018-11-06T19:26:21.330Z,16.63
2018-11-06T19:28:49.695Z,14.10
2018-11-06T19:31:18.069Z,13.17
2018-11-06T19:33:46.404Z,16.83
2018-11-06T19:36:14.793Z,16.40
2018-11-06T19:38:43.159Z,13.33
2018-11-06T19:41:11.582Z,15.43
2018-11-06T19:43:40.023Z,13.43
2018-11-06T19:46:08.545Z,13.57
2018-11-06T19:48:36.948Z,15.97
2018-11-06T19:51:05.411Z,12.67
2018-11-06T19:53:33.862Z,15.83
2018-11-06T19:56:02.228Z,8.40
2018-11-06T19:58:30.647Z,12.43
2018-11-06T20:00:59.051Z,9.50
2018-11-06T20:03:27.461Z,10.33
2018-11-06T20:05:56.010Z,10.10
2018-11-06T20:08:24.285Z,10.13
2018-11-06T20:10:52.668Z,10.00
2018-11-06T20:13:21.039Z,9.27
2018-11-06T20:15:49.499Z,11.70
2018-11-06T20:18:17.983Z,6.83
2018-11-06T20:20:46.345Z,7.97
2018-11-06T20:23:14.721Z,11.27
2018-11-06T20:25:43.288Z,12.13
2018-11-06T20:28:11.681Z,10.77
2018-11-06T20:30:40.136Z,18.40
2018-11-06T20:33:08.524Z,14.70
2018-11-06T20:35:36.931Z,16.43
2018-11-06T20:38:05.389Z,12.80
2018-11-06T20:40:33.722Z,10.83
2018-11-06T20:43:02.125Z,9.60
2018-11-06T20:45:30.428Z,9.27
2018-11-06T20:47:58.834Z,7.53
2018-11-06T20:50:27.185Z,11.30
2018-11-06T20:52:55.666Z,9.27
2018-11-06T20:55:23.995Z,7.53
2018-11-06T20:57:52.326Z,6.73
2018-11-06T21:00:25.994Z,6.90
2018-11-06T21:02:55.279Z,11.20
2018-11-06T21:05:23.643Z,11.63
2018-11-06T21:07:52.000Z,6.50
2018-11-06T21:10:21.641Z,5.40
2018-11-06T21:12:50.007Z,7.77
2018-11-06T21:15:18.354Z,7.53
2018-11-06T21:17:47.716Z,8.27
2018-11-06T21:20:16.665Z,12.17
2018-11-06T21:22:44.978Z,11.20
2018-11-06T21:25:13.677Z,6.47
2018-11-06T21:27:42.430Z,4.03
2018-11-06T21:30:13.604Z,4.87
2018-11-06T21:32:43.080Z,9.40
2018-11-06T21:35:11.538Z,9.97
2018-11-06T21:37:40.146Z,12.27
2018-11-06T21:40:10.580Z,10.70
2018-11-06T21:42:39.316Z,11.63
2018-11-06T21:45:08.799Z,10.13
2018-11-06T21:47:37.104Z,7.20
2018-11-06T21:50:06.613Z,8.13
2018-11-06T21:52:34.936Z,5.13
2018-11-06T21:55:03.290Z,5.00
2018-11-06T21:57:31.614Z,3.70
2018-11-06T21:59:59.974Z,4.50
2018-11-06T22:02:28.290Z,5.77
2018-11-06T22:04:56.633Z,5.93
2018-11-06T22:07:24.978Z,3.80
2018-11-06T22:09:53.326Z,6.87
2018-11-06T22:12:21.704Z,6.43
2018-11-06T22:14:49.997Z,15.97
2018-11-06T22:17:18.334Z,11.00
2018-11-06T22:19:46.684Z,6.77
2018-11-06T22:22:15.072Z,5.27
2018-11-06T22:24:43.393Z,2.60
2018-11-06T22:27:11.714Z,5.50
2018-11-06T22:29:40.058Z,5.87
2018-11-06T22:32:08.568Z,8.63
2018-11-06T22:34:36.854Z,7.67
2018-11-06T22:37:05.380Z,7.47
2018-11-06T22:39:33.632Z,7.30
2018-11-06T22:42:01.952Z,5.27
2018-11-06T22:44:30.300Z,5.03
2018-11-06T22:46:58.639Z,6.60
2018-11-06T22:49:26.985Z,6.00
2018-11-06T22:51:55.328Z,4.60
2018-11-06T22:54:23.656Z,3.03
2018-11-06T22:56:51.993Z,3.03
2018-11-06T22:59:20.334Z,1.87
2018-11-06T23:01:48.666Z,2.30
2018-11-06T23:04:16.990Z,2.27
2018-11-06T23:06:45.407Z,2.20
2018-11-06T23:09:13.644Z,4.17
2018-11-06T23:11:42.002Z,3.80
2018-11-06T23:14:10.344Z,5.20
2018-11-06T23:16:38.646Z,6.13
2018-11-06T23:19:06.996Z,6.37
2018-11-06T23:21:35.332Z,7.70
2018-11-06T23:24:03.684Z,7.50
2018-11-06T23:26:32.085Z,7.63
2018-11-06T23:29:00.410Z,7.23
2018-11-06T23:31:28.811Z,5.83
2018-11-06T23:33:57.124Z,5.00
2018-11-06T23:36:25.405Z,7.43
2018-11-06T23:38:53.773Z,5.07
2018-11-06T23:41:22.070Z,4.63
2018-11-06T23:43:50.382Z,4.27
2018-11-06T23:46:18.685Z,4.40
2018-11-06T23:48:47.000Z,4.67
2018-11-06T23:51:15.319Z,4.43
2018-11-06T23:53:43.659Z,3.90
2018-11-06T23:56:12.013Z,3.33
2018-11-06T23:58:40.282Z,4.43
